createdAt,value
2022-12-04T00:02:11.870Z,7.39
2022-12-04T00:04:38.902Z,7.56
2022-12-04T00:07:05.584Z,7.49
2022-12-04T00:09:32.280Z,7.51
2022-12-04T00:11:59.288Z,7.43
2022-12-04T00:14:26.043Z,7.21
2022-12-04T00:16:52.840Z,7.49
2022-12-04T00:19:19.876Z,7.38
2022-12-04T00:21:46.515Z,7.40
2022-12-04T00:24:13.164Z,7.39
2022-12-04T00:26:39.952Z,7.16
2022-12-04T00:29:06.588Z,7.33
2022-12-04T00:31:34.188Z,7.40
2022-12-04T00:34:02.115Z,7.53
2022-12-04T00:36:29.905Z,7.37
2022-12-04T00:38:58.631Z,7.30
2022-12-04T00:41:28.422Z,7.28
2022-12-04T00:43:55.476Z,7.20
2022-12-04T00:46:23.156Z,7.04
2022-12-04T00:48:50.184Z,6.93
2022-12-04T00:51:20.132Z,7.04
2022-12-04T00:53:47.494Z,7.08
2022-12-04T00:56:18.781Z,7.25
2022-12-04T00:58:45.634Z,7.15
2022-12-04T01:01:16.131Z,7.23
2022-12-04T01:03:43.731Z,7.26
2022-12-04T01:06:21.540Z,7.26
2022-12-04T01:08:50.112Z,7.17
2022-12-04T01:11:17.873Z,7.16
2022-12-04T01:13:44.865Z,7.17
2022-12-04T01:16:24.649Z,7.25
2022-12-04T01:18:51.784Z,7.13
2022-12-04T01:21:18.884Z,7.28
2022-12-04T01:23:45.769Z,7.30
2022-12-04T01:26:12.844Z,7.10
2022-12-04T01:28:39.604Z,7.28
2022-12-04T01:31:13.562Z,7.23
2022-12-04T01:33:40.776Z,6.98
2022-12-04T01:36:11.025Z,6.99
2022-12-04T01:38:38.802Z,6.89
2022-12-04T01:41:06.083Z,7.00
2022-12-04T01:43:34.625Z,6.92
2022-12-04T01:46:03.168Z,7.12
2022-12-04T01:48:33.198Z,6.74
2022-12-04T01:51:15.150Z,7.01
2022-12-04T01:53:47.385Z,6.71
2022-12-04T01:56:15.041Z,7.13
2022-12-04T01:58:46.345Z,6.74
2022-12-04T02:01:13.477Z,7.07
2022-12-04T02:03:40.148Z,7.19
2022-12-04T02:06:07.354Z,7.20
2022-12-04T02:08:36.022Z,7.19
2022-12-04T02:11:22.917Z,7.29
2022-12-04T02:14:15.574Z,7.35
2022-12-04T02:16:48.303Z,7.32
2022-12-04T02:19:27.121Z,7.39
2022-12-04T02:21:57.630Z,7.16
2022-12-04T02:25:01.314Z,7.22
2022-12-04T02:27:40.177Z,7.10
2022-12-04T02:30:15.868Z,7.01
2022-12-04T02:32:58.930Z,6.91
2022-12-04T02:35:31.493Z,7.19
2022-12-04T02:38:17.162Z,7.13
2022-12-04T02:41:12.459Z,7.46
2022-12-04T02:43:50.111Z,7.38
2022-12-04T02:46:30.347Z,7.34
2022-12-04T02:49:01.794Z,7.21
2022-12-04T02:51:32.688Z,6.96
2022-12-04T02:54:11.706Z,6.95
2022-12-04T02:56:43.254Z,6.97
2022-12-04T02:59:18.149Z,6.90
2022-12-04T03:01:46.980Z,6.65
2022-12-04T03:04:17.856Z,6.67
2022-12-04T03:06:48.729Z,6.83
2022-12-04T03:09:22.224Z,6.64
2022-12-04T03:12:15.210Z,6.82
2022-12-04T03:14:53.029Z,6.73
2022-12-04T03:17:35.321Z,6.81
2022-12-04T03:20:10.046Z,6.81
2022-12-04T03:22:40.971Z,6.94
2022-12-04T03:25:09.036Z,6.92
2022-12-04T03:27:58.333Z,7.10
2022-12-04T03:30:25.216Z,7.11
2022-12-04T03:33:09.895Z,6.78
2022-12-04T03:35:44.920Z,6.94
2022-12-04T03:38:47.917Z,7.15
2022-12-04T03:41:32.316Z,6.70
2022-12-04T03:44:11.105Z,6.84
2022-12-04T03:46:53.340Z,6.74
2022-12-04T03:49:27.957Z,6.65
2022-12-04T03:52:25.604Z,6.66
2022-12-04T03:55:00.889Z,6.56
2022-12-04T03:57:33.585Z,6.77
2022-12-04T04:00:13.064Z,6.64
2022-12-04T04:02:45.431Z,6.65
2022-12-04T04:05:13.792Z,6.80
2022-12-04T04:07:49.185Z,6.81
2022-12-04T04:10:19.046Z,6.73
2022-12-04T04:13:23.578Z,6.87
2022-12-04T04:16:14.491Z,7.00
2022-12-04T04:19:01.459Z,6.91
2022-12-04T04:21:51.903Z,7.15
2022-12-04T04:24:29.528Z,7.09
2022-12-04T04:26:58.931Z,6.75
2022-12-04T04:29:26.637Z,7.08
2022-12-04T04:32:11.792Z,6.95
2022-12-04T04:35:00.941Z,6.88
2022-12-04T04:37:45.976Z,7.09
2022-12-04T04:40:24.610Z,6.79
2022-12-04T04:43:03.342Z,6.80
2022-12-04T04:45:42.054Z,6.91
2022-12-04T04:48:11.432Z,6.90
2022-12-04T04:50:39.773Z,6.58
2022-12-04T04:53:11.071Z,6.83
2022-12-04T04:55:39.091Z,6.93
2022-12-04T04:58:15.041Z,6.59
2022-12-04T05:00:50.986Z,6.61
2022-12-04T05:03:17.608Z,6.50
2022-12-04T05:05:44.471Z,6.81
2022-12-04T05:08:11.249Z,6.72
2022-12-04T05:10:37.984Z,6.74
2022-12-04T05:13:04.718Z,6.68
2022-12-04T05:15:31.457Z,6.61
2022-12-04T05:17:58.204Z,6.93
2022-12-04T05:20:24.913Z,6.80
2022-12-04T05:22:51.630Z,6.71
2022-12-04T05:25:18.245Z,6.52
2022-12-04T05:27:44.858Z,6.86
2022-12-04T05:30:12.275Z,6.91
2022-12-04T05:32:39.015Z,6.97
2022-12-04T05:35:11.099Z,6.97
2022-12-04T05:37:39.564Z,6.97
2022-12-04T05:40:08.114Z,7.11
2022-12-04T05:42:34.901Z,7.13
2022-12-04T05:45:01.601Z,7.02
2022-12-04T05:47:31.289Z,7.10
2022-12-04T05:49:58.633Z,7.02
2022-12-04T05:52:25.519Z,6.61
2022-12-04T05:54:52.203Z,6.52
2022-12-04T05:57:18.902Z,6.68
2022-12-04T05:59:45.637Z,6.75
2022-12-04T06:02:12.385Z,6.60
2022-12-04T06:04:39.082Z,6.56
2022-12-04T06:07:05.852Z,6.81
2022-12-04T06:09:33.000Z,6.85
2022-12-04T06:11:59.794Z,6.59
2022-12-04T06:14:26.553Z,6.60
2022-12-04T06:16:53.600Z,6.74
2022-12-04T06:19:21.916Z,6.62
2022-12-04T06:21:50.922Z,6.36
2022-12-04T06:24:23.573Z,6.83
2022-12-04T06:27:25.767Z,6.79
2022-12-04T06:29:38.138Z,6.90
2022-12-04T06:32:05.226Z,6.93
2022-12-04T06:34:32.556Z,6.52
2022-12-04T06:37:00.481Z,7.02
2022-12-04T06:39:27.524Z,6.90
2022-12-04T06:41:54.233Z,6.80
2022-12-04T06:44:21.215Z,6.60
2022-12-04T06:46:50.196Z,6.55
2022-12-04T06:49:17.188Z,6.81
2022-12-04T06:51:44.062Z,6.76
2022-12-04T06:54:11.191Z,6.95
2022-12-04T06:56:38.115Z,6.81
2022-12-04T06:59:05.780Z,7.14
2022-12-04T07:01:35.198Z,6.78
2022-12-04T07:04:04.654Z,7.10
2022-12-04T07:14:45.133Z,6.52
2022-12-04T07:17:12.778Z,6.44
2022-12-04T07:19:40.397Z,6.74
2022-12-04T07:22:09.039Z,6.67
2022-12-04T07:24:39.725Z,6.67
2022-12-04T07:27:06.753Z,6.61
2022-12-04T07:29:33.988Z,6.72
2022-12-04T07:48:03.395Z,6.82
2022-12-04T07:50:31.193Z,6.93
2022-12-04T07:52:59.789Z,6.80
2022-12-04T07:55:29.589Z,6.86
2022-12-04T07:58:02.166Z,6.92
2022-12-04T08:00:33.525Z,6.91
2022-12-04T08:03:00.301Z,6.73
2022-12-04T08:05:28.921Z,6.58
2022-12-04T08:07:55.715Z,6.62
2022-12-04T08:10:22.766Z,6.60
2022-12-04T08:12:49.466Z,6.77
2022-12-04T08:15:16.354Z,7.11
2022-12-04T08:17:43.025Z,6.72
2022-12-04T08:20:10.055Z,6.83
2022-12-04T08:22:36.796Z,6.86
2022-12-04T08:25:03.938Z,6.76
2022-12-04T08:27:30.835Z,6.69
2022-12-04T08:29:57.988Z,6.72
2022-12-04T08:32:25.090Z,6.33
2022-12-04T08:34:55.944Z,6.25
2022-12-04T08:37:23.666Z,6.49
2022-12-04T08:39:53.794Z,6.36
2022-12-04T08:42:21.301Z,6.42
2022-12-04T08:44:50.427Z,6.34
2022-12-04T08:47:20.307Z,6.81
2022-12-04T08:49:47.722Z,6.75
2022-12-04T08:52:18.141Z,6.94
2022-12-04T08:54:47.031Z,6.89
2022-12-04T08:57:23.270Z,7.04
2022-12-04T08:59:50.625Z,6.63
2022-12-04T09:02:18.238Z,6.70
2022-12-04T09:04:45.429Z,7.06
2022-12-04T09:07:16.535Z,7.06
2022-12-04T09:09:48.402Z,7.30
2022-12-04T09:12:18.069Z,7.27
2022-12-04T09:28:05.348Z,7.26
2022-12-04T09:30:34.349Z,7.22
2022-12-04T09:33:01.994Z,6.99
2022-12-04T09:35:31.159Z,7.39
2022-12-04T09:38:01.877Z,7.15
2022-12-04T09:40:42.520Z,7.09
2022-12-04T09:43:35.103Z,7.49
2022-12-04T09:46:10.337Z,7.30
2022-12-04T09:48:43.194Z,7.37
2022-12-04T09:51:18.914Z,7.23
2022-12-04T09:53:53.690Z,7.35
2022-12-04T09:56:23.687Z,7.49
2022-12-04T09:58:56.411Z,7.57
2022-12-04T10:01:35.534Z,7.71
2022-12-04T10:04:06.030Z,7.38
2022-12-04T10:06:45.928Z,7.67
2022-12-04T10:12:29.964Z,7.74
2022-12-04T10:18:12.026Z,7.74
2022-12-04T11:27:16.209Z,7.70
2022-12-04T11:32:32.844Z,7.89
2022-12-04T11:38:17.965Z,7.56
2022-12-04T11:40:57.051Z,7.69
2022-12-04T11:43:30.396Z,7.98
2022-12-04T11:46:07.396Z,7.77
2022-12-04T11:48:45.505Z,7.59
2022-12-04T11:51:24.683Z,7.80
2022-12-04T11:54:08.617Z,7.45
2022-12-04T12:00:04.143Z,7.49
2022-12-04T12:03:22.219Z,7.75
2022-12-04T12:05:54.331Z,7.59
2022-12-04T12:11:35.442Z,8.00
2022-12-04T12:14:18.517Z,7.97
2022-12-04T12:17:06.450Z,7.99
2022-12-04T12:20:07.161Z,7.94
2022-12-04T12:22:52.304Z,8.01
2022-12-04T12:25:28.029Z,7.68
2022-12-04T12:28:17.318Z,7.82
2022-12-04T12:30:53.816Z,7.58
2022-12-04T12:33:26.526Z,7.37
2022-12-04T12:36:24.957Z,7.74
2022-12-04T12:39:09.803Z,7.47
2022-12-04T12:41:47.721Z,7.54
2022-12-04T12:44:27.647Z,7.71
2022-12-04T12:47:12.519Z,7.64
2022-12-04T12:53:17.532Z,7.83
2022-12-04T12:56:00.880Z,7.83
2022-12-04T12:58:43.975Z,7.90
2022-12-04T13:01:21.476Z,7.46
2022-12-04T13:20:34.864Z,7.39
2022-12-04T13:35:19.259Z,7.51
2022-12-04T13:40:40.487Z,7.38
2022-12-04T13:48:50.413Z,7.19
2022-12-04T14:00:10.259Z,7.52
2022-12-04T14:14:03.591Z,7.60
2022-12-04T14:25:15.757Z,7.57
2022-12-04T14:33:23.904Z,7.33
2022-12-04T14:38:41.520Z,7.35
2022-12-04T14:43:51.739Z,6.98
2022-12-04T14:46:42.778Z,6.91
2022-12-04T15:01:58.315Z,7.31
2022-12-04T15:07:23.238Z,7.15
2022-12-04T15:10:16.928Z,7.10
2022-12-04T15:31:58.122Z,7.01
2022-12-04T15:40:13.372Z,7.02
2022-12-04T15:45:27.350Z,6.94
2022-12-04T16:04:31.143Z,7.15
2022-12-04T16:09:41.109Z,6.94
2022-12-04T16:12:23.633Z,7.08
2022-12-04T16:14:54.561Z,6.97
2022-12-04T16:17:27.768Z,6.78
2022-12-04T16:19:56.603Z,6.19
2022-12-04T16:22:34.041Z,6.55
2022-12-04T16:25:02.207Z,6.81
2022-12-04T16:27:29.667Z,6.96
2022-12-04T16:30:01.062Z,6.63
2022-12-04T16:32:34.233Z,6.42
2022-12-04T16:35:05.378Z,7.10
2022-12-04T16:37:32.404Z,6.81
2022-12-04T16:40:01.157Z,6.85
2022-12-04T16:42:30.284Z,6.39
2022-12-04T16:44:59.056Z,6.91
2022-12-04T16:47:26.257Z,6.82
2022-12-04T16:49:54.031Z,6.93
2022-12-04T16:52:22.107Z,6.58
2022-12-04T16:54:53.951Z,6.03
2022-12-04T16:57:21.675Z,6.72
2022-12-04T16:59:51.613Z,6.35
2022-12-04T17:02:27.455Z,7.03
2022-12-04T17:04:57.843Z,6.59
2022-12-04T17:07:25.937Z,7.02
2022-12-04T17:12:35.103Z,6.80
2022-12-04T17:20:27.990Z,6.66
2022-12-04T17:22:54.920Z,6.84
2022-12-04T17:25:21.798Z,6.58
2022-12-04T17:27:48.711Z,6.35
2022-12-04T17:30:15.907Z,6.22
2022-12-04T17:32:43.409Z,6.86
2022-12-04T17:35:12.835Z,6.66
2022-12-04T17:37:40.137Z,6.75
2022-12-04T17:40:09.780Z,6.78
2022-12-04T17:42:36.828Z,7.08
2022-12-04T17:45:03.989Z,6.45
2022-12-04T17:47:30.950Z,6.61
2022-12-04T17:49:57.931Z,6.46
2022-12-04T17:52:26.378Z,6.61
2022-12-04T17:54:54.495Z,6.63
2022-12-04T18:10:51.165Z,6.96
2022-12-04T18:16:13.815Z,6.92
2022-12-04T18:18:45.778Z,6.56
2022-12-04T18:21:17.250Z,6.49
2022-12-04T18:26:34.644Z,7.25
2022-12-04T18:39:51.507Z,6.46
2022-12-04T18:42:21.272Z,6.25
2022-12-04T19:17:36.853Z,7.04
2022-12-04T19:33:31.367Z,6.93
2022-12-04T19:46:47.232Z,6.57
2022-12-04T19:49:14.632Z,6.61
2022-12-04T19:51:41.312Z,7.16
2022-12-04T19:54:11.246Z,7.04
2022-12-04T19:56:37.925Z,6.72
2022-12-04T19:59:07.753Z,6.96
2022-12-04T20:01:35.653Z,6.64
2022-12-04T20:04:05.716Z,6.88
2022-12-04T20:06:37.695Z,6.89
2022-12-04T20:09:07.851Z,6.71
2022-12-04T20:11:34.837Z,6.81
2022-12-04T20:14:02.412Z,6.92
2022-12-04T20:16:31.391Z,6.98
2022-12-04T20:18:58.354Z,7.03
2022-12-04T20:21:31.550Z,6.86
2022-12-04T20:24:02.218Z,7.00
2022-12-04T20:26:32.570Z,6.72
2022-12-04T20:29:00.746Z,6.66
2022-12-04T20:31:36.149Z,6.88
2022-12-04T20:34:05.319Z,6.89
2022-12-04T20:36:47.314Z,6.84
2022-12-04T20:39:16.413Z,6.84
2022-12-04T20:41:43.381Z,6.97
2022-12-04T20:44:14.324Z,6.70
2022-12-04T20:46:42.776Z,6.93
2022-12-04T20:49:18.792Z,7.15
2022-12-04T20:51:48.293Z,6.92
2022-12-04T20:54:20.292Z,7.18
2022-12-04T20:56:49.113Z,7.07
2022-12-04T20:59:18.293Z,7.13
2022-12-04T21:01:45.251Z,6.93
2022-12-04T21:04:13.328Z,7.10
2022-12-04T21:06:41.642Z,7.10
2022-12-04T21:09:12.004Z,7.43
2022-12-04T21:11:40.255Z,7.17
2022-12-04T21:14:30.910Z,6.87
2022-12-04T21:16:58.052Z,7.03
2022-12-04T21:19:25.480Z,7.20
2022-12-04T21:21:52.512Z,6.95
2022-12-04T21:24:20.876Z,7.35
2022-12-04T21:26:47.665Z,7.43
2022-12-04T21:29:15.782Z,7.20
2022-12-04T21:31:43.011Z,7.06
2022-12-04T21:34:11.953Z,7.00
2022-12-04T21:36:39.283Z,7.23
2022-12-04T21:39:06.900Z,7.26
2022-12-04T21:41:52.383Z,7.23
2022-12-04T21:44:20.501Z,7.39
2022-12-04T21:46:47.779Z,7.01
2022-12-04T21:49:15.334Z,7.21
2022-12-04T21:51:58.886Z,7.06
2022-12-04T21:54:29.876Z,7.28
2022-12-04T21:56:57.512Z,7.24
2022-12-04T21:59:25.872Z,7.11
2022-12-04T22:01:53.721Z,7.20
2022-12-04T22:04:21.057Z,7.17
2022-12-04T22:06:47.983Z,7.20
2022-12-04T22:09:14.734Z,7.02
2022-12-04T22:11:42.179Z,6.98
2022-12-04T22:14:09.856Z,7.23
2022-12-04T22:16:41.854Z,6.86
2022-12-04T22:19:09.345Z,7.11
2022-12-04T22:21:36.058Z,6.85
2022-12-04T22:24:04.654Z,7.13
2022-12-04T22:26:32.013Z,7.15
2022-12-04T22:28:58.865Z,7.10
2022-12-04T22:31:27.826Z,6.99
2022-12-04T22:33:56.857Z,7.04
2022-12-04T22:36:25.768Z,7.21
2022-12-04T22:41:39.873Z,6.92
2022-12-04T22:44:06.655Z,6.79
2022-12-04T22:46:34.471Z,6.55
2022-12-04T22:49:01.311Z,6.92
2022-12-04T22:51:28.923Z,6.70
2022-12-04T22:53:58.281Z,6.90
2022-12-04T22:56:30.543Z,7.04
2022-12-04T22:58:59.094Z,7.18
2022-12-04T23:01:28.476Z,6.97
2022-12-04T23:03:55.976Z,6.97
2022-12-04T23:06:25.475Z,6.94
2022-12-04T23:09:07.390Z,7.02
2022-12-04T23:11:37.927Z,6.81
2022-12-04T23:14:06.550Z,6.91
2022-12-04T23:16:35.659Z,6.96
2022-12-04T23:19:02.940Z,6.98
2022-12-04T23:21:29.834Z,6.98
2022-12-04T23:23:57.244Z,6.86
2022-12-04T23:26:31.484Z,6.98
2022-12-04T23:28:58.429Z,6.67
2022-12-04T23:31:25.307Z,7.00
2022-12-04T23:33:52.022Z,6.91
2022-12-04T23:36:18.701Z,6.77
2022-12-04T23:38:46.007Z,7.13
2022-12-04T23:41:15.456Z,7.02
2022-12-04T23:43:43.120Z,7.14
2022-12-04T23:46:11.991Z,7.01
2022-12-04T23:48:40.819Z,7.00
2022-12-04T23:51:08.966Z,6.91
2022-12-04T23:53:35.936Z,6.96
2022-12-04T23:56:16.511Z,6.83
2022-12-04T23:58:45.157Z,6.90
